Time;durP1;ratioP1;P1;durP2;ratioP2;P2;SDS_P1;SDS_P2;PMS_P1;PMS_P2;Temp;Humidity;BMP_temperature;BMP_pressure;BME280_temperature;BME280_humidity;BME280_pressure;Samples;Min_cycle;Max_cycle;Signal;HPM_P1;HPM_P2
2022/09/06 00:00:30;;;;;;;8.53;5.90;;;;;;;19.79;77.60;98233.84;4175270;28;20660;-92
2022/09/06 00:02:36;;;;;;;7.03;6.33;;;;;;;19.78;76.64;98230.34;4176826;28;21096;-92
2022/09/06 00:04:39;;;;;;;7.07;6.07;;;;;;;19.77;77.08;98228.72;4174544;28;20690;-92
2022/09/06 00:06:42;;;;;;;8.27;6.50;;;;;;;19.74;76.51;98236.97;4175857;28;21324;-92
2022/09/06 00:08:47;;;;;;;8.80;5.77;;;;;;;19.71;76.48;98229.34;4177877;28;20678;-92
2022/09/06 00:10:57;;;;;;;7.40;6.23;;;;;;;19.66;77.72;98231.63;4190834;28;20637;-92
2022/09/06 00:13:04;;;;;;;7.03;5.70;;;;;;;19.63;76.78;98229.28;4204156;28;20650;-91
2022/09/06 00:15:08;;;;;;;8.00;6.13;;;;;;;19.60;77.59;98228.78;4190458;28;20666;-91
2022/09/06 00:17:11;;;;;;;7.73;6.60;;;;;;;19.56;78.27;98225.63;4191466;28;20671;-92
2022/09/06 00:19:16;;;;;;;8.53;6.40;;;;;;;19.55;77.88;98228.41;4204493;28;20669;-91
2022/09/06 00:21:21;;;;;;;6.97;6.27;;;;;;;19.52;77.17;98232.19;4185704;28;20743;-92
2022/09/06 00:23:24;;;;;;;10.00;9.00;;;;;;;19.51;76.94;98227.88;4189743;28;20667;-92
2022/09/06 00:25:28;;;;;;;9.73;8.07;;;;;;;19.48;78.07;98224.72;4175928;28;20656;-92
2022/09/06 00:27:31;;;;;;;7.90;7.10;;;;;;;19.48;77.92;98228.22;4173677;28;20674;-92
2022/09/06 00:29:35;;;;;;;8.57;7.17;;;;;;;19.45;77.39;98217.97;4187915;28;20656;-92
2022/09/06 00:31:38;;;;;;;8.07;6.97;;;;;;;19.43;77.69;98214.63;4191286;28;20670;-91
2022/09/06 00:33:41;;;;;;;12.27;9.47;;;;;;;19.40;78.79;98212.28;4188858;28;21078;-93
2022/09/06 00:35:46;;;;;;;9.80;8.80;;;;;;;19.38;78.31;98218.72;4189876;28;20647;-92
2022/09/06 00:37:49;;;;;;;9.13;8.23;;;;;;;19.37;78.94;98215.22;4191457;28;20650;-91
2022/09/06 00:39:52;;;;;;;9.60;8.03;;;;;;;19.35;77.68;98212.91;4190300;28;21211;-91
2022/09/06 00:41:55;;;;;;;8.90;8.00;;;;;;;19.35;78.51;98204.97;4184293;28;20652;-92
2022/09/06 00:43:58;;;;;;;10.00;7.93;;;;;;;19.32;78.04;98199.97;4190935;28;20716;-92
2022/09/06 00:46:02;;;;;;;9.63;8.63;;;;;;;19.26;78.66;98204.09;4202290;28;20707;-91
2022/09/06 00:48:06;;;;;;;8.50;6.70;;;;;;;19.29;78.42;98213.53;4174310;28;20667;-91
2022/09/06 00:50:10;;;;;;;8.60;7.20;;;;;;;19.27;78.04;98216.31;4172048;28;20663;-92
2022/09/06 00:52:17;;;;;;;7.77;7.03;;;;;;;19.25;78.99;98210.38;4189955;28;20644;-91
2022/09/06 00:54:21;;;;;;;8.23;7.33;;;;;;;19.23;79.19;98212.34;4167696;28;20658;-91
2022/09/06 00:56:24;;;;;;;7.77;6.87;;;;;;;19.19;78.39;98210.97;4173411;28;21301;-91
2022/09/06 00:58:28;;;;;;;7.60;6.90;;;;;;;19.14;79.14;98199.19;4191224;28;21091;-92
2022/09/06 01:00:31;;;;;;;8.67;7.03;;;;;;;19.10;79.28;98200.50;4202368;28;21030;-92
2022/09/06 01:02:34;;;;;;;7.20;6.50;;;;;;;19.06;79.79;98193.84;4189428;28;20653;-91
2022/09/06 01:04:41;;;;;;;6.83;6.03;;;;;;;19.07;79.42;98195.53;4183597;28;20655;-91
2022/09/06 01:06:50;;;;;;;7.20;6.37;;;;;;;19.04;79.81;98206.41;4162333;28;20717;-91
2022/09/06 01:09:13;;;;;;;7.67;6.30;;;;;;;19.02;79.28;98209.22;4155901;28;20672;-92
2022/09/06 01:11:29;;;;;;;7.03;6.33;;;;;;;18.98;79.79;98213.09;4157788;28;21283;-91
2022/09/06 01:13:40;;;;;;;7.37;6.67;;;;;;;18.96;79.84;98214.25;4173409;28;20660;-92
2022/09/06 01:15:50;;;;;;;7.60;6.80;;;;;;;18.92;79.78;98216.34;4192148;28;20769;-91
2022/09/06 01:18:11;;;;;;;6.80;6.10;;;;;;;18.90;79.85;98213.03;4192958;28;20698;-91
2022/09/06 01:20:32;;;;;;;9.27;6.97;;;;;;;18.88;80.35;98214.16;4186774;28;20769;-92
2022/09/06 01:23:09;;;;;;;7.10;6.40;;;;;;;18.86;80.41;98216.16;4168538;28;20663;-92
2022/09/06 01:25:33;;;;;;;7.93;7.13;;;;;;;18.84;81.05;98207.53;4182569;28;21254;-92
2022/09/06 01:28:07;;;;;;;7.37;6.67;;;;;;;18.84;80.45;98219.91;4204810;28;20654;-92
2022/09/06 01:30:12;;;;;;;7.13;6.43;;;;;;;18.81;80.22;98221.06;4204004;28;20657;-92
2022/09/06 01:32:21;;;;;;;12.00;6.73;;;;;;;18.81;80.57;98215.78;4192243;28;20654;-92
2022/09/06 01:34:30;;;;;;;7.67;6.83;;;;;;;18.81;80.53;98214.94;4171507;28;20636;-91
2022/09/06 01:36:35;;;;;;;7.33;6.60;;;;;;;18.77;80.45;98214.41;4184414;28;21133;-92
2022/09/06 01:38:56;;;;;;;6.83;6.23;;;;;;;18.75;80.81;98215.53;4190936;28;20750;-92
2022/09/06 01:40:59;;;;;;;6.93;6.33;;;;;;;18.74;80.07;98219.19;4176583;28;20644;-92
2022/09/06 01:43:05;;;;;;;7.40;6.70;;;;;;;18.73;81.06;98218.31;4202307;28;20691;-92
2022/09/06 01:45:15;;;;;;;9.83;6.70;;;;;;;18.69;81.34;98218.81;4199333;28;20655;-92
2022/09/06 01:47:23;;;;;;;7.03;6.30;;;;;;;18.64;81.45;98219.25;4202591;28;20653;-92
2022/09/06 01:49:36;;;;;;;6.80;6.10;;;;;;;18.62;81.32;98226.50;4172343;28;20673;-92
2022/09/06 01:51:50;;;;;;;8.13;6.40;;;;;;;18.61;81.62;98230.13;4171487;28;20742;-92
2022/09/06 01:54:16;;;;;;;6.60;5.90;;;;;;;18.61;81.62;98224.84;4186356;28;20701;-92
2022/09/06 01:56:29;;;;;;;6.90;6.20;;;;;;;18.60;81.53;98233.75;4186084;28;20668;-92
2022/09/06 01:58:59;;;;;;;7.77;6.77;;;;;;;18.57;81.79;98238.50;4169616;28;20645;-92
2022/09/06 02:01:06;;;;;;;7.57;6.17;;;;;;;18.54;81.57;98244.91;4184980;28;20648;-92
2022/09/06 02:03:14;;;;;;;8.50;6.60;;;;;;;18.53;82.40;98247.72;4182413;28;20758;-91
2022/09/06 02:05:22;;;;;;;6.63;6.00;;;;;;;18.52;81.58;98238.97;4167921;28;21532;-92
2022/09/06 02:07:28;;;;;;;7.20;6.50;;;;;;;18.52;82.32;98238.97;4187334;28;20649;-91
2022/09/06 02:09:34;;;;;;;7.30;6.50;;;;;;;18.53;81.98;98240.59;4169046;28;20656;-92
2022/09/06 02:11:41;;;;;;;7.13;6.40;;;;;;;18.51;82.60;98234.66;4170105;28;20658;-92
2022/09/06 02:13:49;;;;;;;8.27;6.93;;;;;;;18.48;82.12;98240.22;4168486;28;20657;-94
2022/09/06 02:15:56;;;;;;;7.43;6.70;;;;;;;18.46;82.08;98236.06;4203076;28;20658;-94
2022/09/06 02:18:02;;;;;;;8.90;6.40;;;;;;;18.43;82.18;98239.84;4170799;28;21244;-95
2022/09/06 02:20:07;;;;;;;6.60;6.00;;;;;;;18.41;82.35;98228.59;4169787;28;20754;-95
2022/09/06 02:22:12;;;;;;;8.37;7.13;;;;;;;18.41;82.26;98230.41;4187515;28;20671;-94
2022/09/06 02:24:19;;;;;;;7.50;5.90;;;;;;;18.38;82.36;98225.41;4181850;28;20747;-95
2022/09/06 02:26:25;;;;;;;6.57;5.97;;;;;;;18.38;82.49;98224.59;4201895;28;20647;-93
2022/09/06 02:28:28;;;;;;;8.13;6.87;;;;;;;18.38;82.00;98227.25;4188380;28;20638;-94
2022/09/06 02:30:35;;;;;;;7.93;7.23;;;;;;;18.38;82.85;98236.00;4199009;28;21201;-92
2022/09/06 02:32:40;;;;;;;6.50;5.90;;;;;;;18.41;83.30;98248.06;4184672;28;20679;-92
2022/09/06 02:34:45;;;;;;;7.60;6.83;;;;;;;18.41;82.72;98258.66;4170545;28;22618;-91
2022/09/06 02:36:48;;;;;;;7.80;6.40;;;;;;;18.43;83.07;98319.09;4187539;28;20663;-92
2022/09/06 02:38:51;;;;;;;7.53;6.83;;;;;;;18.47;82.45;98349.53;4168830;28;20645;-91
2022/09/06 02:40:55;;;;;;;6.77;6.07;;;;;;;18.41;82.77;98332.59;4187879;28;20773;-92
2022/09/06 02:42:58;;;;;;;7.67;6.67;;;;;;;18.43;82.08;98336.75;4201884;28;20673;-92
2022/09/06 02:45:01;;;;;;;8.60;6.53;;;;;;;18.45;83.23;98329.53;4169869;28;21211;-91
2022/09/06 02:47:06;;;;;;;7.20;6.33;;;;;;;18.53;82.88;98342.81;4182112;28;20838;-92
2022/09/06 02:49:09;;;;;;;7.00;6.30;;;;;;;18.55;82.26;98335.56;4187052;28;20639;-92
2022/09/06 02:51:12;;;;;;;7.10;6.47;;;;;;;18.55;82.73;98331.16;4185431;28;20661;-91
2022/09/06 02:53:16;;;;;;;7.17;6.13;;;;;;;18.60;83.12;98328.06;4181943;28;20660;-92
2022/09/06 02:55:19;;;;;;;8.13;6.57;;;;;;;18.62;82.62;98320.81;4200088;28;21530;-92
2022/09/06 02:57:22;;;;;;;6.80;6.20;;;;;;;18.62;83.02;98318.97;4166359;28;21016;-91
2022/09/06 02:59:25;;;;;;;7.10;6.40;;;;;;;18.65;82.64;98326.63;4188073;28;20647;-91
2022/09/06 03:01:28;;;;;;;7.37;6.63;;;;;;;18.69;83.36;98320.06;4165308;28;20686;-92
2022/09/06 03:03:33;;;;;;;6.70;6.10;;;;;;;18.73;82.93;98323.22;4185164;28;20698;-92
2022/09/06 03:05:36;;;;;;;7.30;6.60;;;;;;;18.72;83.22;98319.75;4186165;28;20711;-92
2022/09/06 03:07:39;;;;;;;6.87;6.23;;;;;;;18.74;83.22;98325.72;4162685;28;20679;-92
2022/09/06 03:09:42;;;;;;;6.63;5.90;;;;;;;18.77;83.15;98324.59;4177774;28;20673;-91
2022/09/06 03:11:45;;;;;;;7.13;6.53;;;;;;;18.81;83.02;98326.81;4181228;28;21233;-91
2022/09/06 03:13:49;;;;;;;7.43;6.73;;;;;;;18.84;83.38;98331.78;4204115;28;20657;-92
2022/09/06 03:15:54;;;;;;;9.10;6.83;;;;;;;18.88;83.64;98324.38;4189204;28;20666;-91
2022/09/06 03:17:58;;;;;;;6.97;6.27;;;;;;;18.89;83.13;98311.84;4187879;28;21044;-92
2022/09/06 03:20:03;;;;;;;7.47;6.77;;;;;;;18.93;83.54;98307.09;4169548;28;20645;-92
2022/09/06 03:22:06;;;;;;;8.30;6.30;;;;;;;18.97;83.24;98300.50;4202603;28;20646;-92
2022/09/06 03:24:11;;;;;;;7.50;6.53;;;;;;;19.01;84.00;98308.03;4199193;28;20697;-91
2022/09/06 03:26:14;;;;;;;9.30;6.87;;;;;;;19.03;84.62;98299.94;4184914;28;20689;-91
2022/09/06 03:28:17;;;;;;;9.13;7.20;;;;;;;19.03;85.34;98284.06;4187502;28;20655;-91
2022/09/06 03:30:20;;;;;;;7.20;6.60;;;;;;;19.04;85.32;98261.94;4183312;28;20730;-90
2022/09/06 03:32:23;;;;;;;7.03;6.33;;;;;;;19.05;85.40;98247.75;4170208;28;20654;-91
2022/09/06 03:34:26;;;;;;;6.80;6.10;;;;;;;19.02;85.88;98234.84;4202328;28;20678;-90
2022/09/06 03:36:31;;;;;;;12.00;6.83;;;;;;;19.01;86.39;98233.13;4188409;28;20720;-91
2022/09/06 03:38:34;;;;;;;8.67;7.33;;;;;;;18.98;86.77;98244.00;4188405;28;20672;-92
2022/09/06 03:40:37;;;;;;;8.90;7.97;;;;;;;18.94;87.12;98261.16;4197260;28;20655;-91
2022/09/06 03:42:40;;;;;;;8.00;7.20;;;;;;;18.92;88.00;98255.19;4187518;28;21079;-91
2022/09/06 03:44:43;;;;;;;9.20;6.60;;;;;;;18.93;88.50;98246.28;4169568;28;20740;-91
2022/09/06 03:46:46;;;;;;;9.17;7.17;;;;;;;18.88;88.84;98242.44;4167412;28;20652;-90
2022/09/06 03:48:49;;;;;;;7.90;6.60;;;;;;;18.85;88.39;98242.72;4192384;28;21042;-91
2022/09/06 03:50:54;;;;;;;8.30;7.37;;;;;;;18.83;88.98;98242.88;4190379;28;20659;-91
2022/09/06 03:52:59;;;;;;;9.50;7.93;;;;;;;18.70;90.34;98237.16;4183326;28;20662;-91
2022/09/06 03:55:02;;;;;;;8.40;6.90;;;;;;;18.65;90.27;98230.66;4163970;28;20718;-91
2022/09/06 03:57:05;;;;;;;10.23;6.57;;;;;;;18.69;90.91;98251.34;4182496;28;21267;-90
2022/09/06 03:59:09;;;;;;;8.10;7.33;;;;;;;18.72;91.46;98244.91;4186919;28;20649;-91
2022/09/06 04:01:12;;;;;;;9.77;7.60;;;;;;;18.77;90.79;98251.41;4170031;28;20685;-91
2022/09/06 04:03:18;;;;;;;9.07;7.60;;;;;;;18.78;91.50;98271.59;4185042;28;20975;-92
2022/09/06 04:05:21;;;;;;;8.23;7.43;;;;;;;18.77;91.09;98285.78;4184590;28;21201;-91
2022/09/06 04:07:24;;;;;;;8.40;7.33;;;;;;;18.76;91.77;98288.56;4187844;28;20737;-91
2022/09/06 04:09:28;;;;;;;7.30;6.60;;;;;;;18.74;90.47;98311.69;4171810;28;20655;-92
2022/09/06 04:11:31;;;;;;;8.20;6.80;;;;;;;18.67;91.33;98313.25;4203853;28;20649;-91
2022/09/06 04:13:35;;;;;;;8.07;7.27;;;;;;;18.72;90.10;98289.84;4172579;28;20753;-91
2022/09/06 04:15:38;;;;;;;8.40;7.13;;;;;;;18.67;91.56;98269.19;4187205;28;20650;-91
2022/09/06 04:17:43;;;;;;;10.13;7.50;;;;;;;18.65;91.78;98259.72;4169130;28;21018;-93
2022/09/06 04:19:47;;;;;;;8.90;7.17;;;;;;;18.66;91.46;98271.97;4177006;28;20657;-91
2022/09/06 04:21:50;;;;;;;8.27;7.47;;;;;;;18.66;91.97;98258.75;4185593;28;20657;-94
2022/09/06 04:23:53;;;;;;;10.60;7.70;;;;;;;18.66;92.23;98270.16;4188287;28;20647;-92
2022/09/06 04:25:59;;;;;;;7.73;7.03;;;;;;;18.62;92.13;98262.66;4171589;28;20708;-92
2022/09/06 04:28:03;;;;;;;8.40;7.53;;;;;;;18.67;91.33;98258.59;4172556;28;20730;-91
2022/09/06 04:30:07;;;;;;;9.40;7.10;;;;;;;18.70;91.66;98258.31;4207776;28;20726;-91
2022/09/06 04:32:10;;;;;;;7.77;6.97;;;;;;;18.72;92.51;98258.97;4189277;28;20650;-91
2022/09/06 04:34:15;;;;;;;11.60;7.67;;;;;;;18.72;92.91;98268.69;4173423;28;20651;-92
2022/09/06 04:36:18;;;;;;;10.60;7.57;;;;;;;18.73;92.82;98287.03;4188379;28;20654;-92
2022/09/06 04:38:21;;;;;;;8.43;7.63;;;;;;;18.73;91.95;98307.38;4172594;28;20659;-92
2022/09/06 04:40:24;;;;;;;8.50;7.30;;;;;;;18.75;91.71;98340.59;4188618;28;20662;-93
2022/09/06 04:42:28;;;;;;;8.20;7.40;;;;;;;18.70;92.58;98332.31;4204509;28;21026;-92
2022/09/06 04:44:31;;;;;;;10.43;8.30;;;;;;;18.71;92.59;98327.84;4191843;28;21290;-93
2022/09/06 04:46:35;;;;;;;8.30;7.50;;;;;;;18.71;93.02;98315.44;4169306;28;20694;-92
2022/09/06 04:48:38;;;;;;;9.47;7.97;;;;;;;18.75;92.83;98285.09;4205183;28;20651;-92
2022/09/06 04:50:41;;;;;;;21.33;8.07;;;;;;;18.72;94.14;98244.91;4186213;28;21304;-90
2022/09/06 04:52:44;;;;;;;11.10;7.53;;;;;;;18.70;94.78;98221.31;4203436;28;21183;-92
2022/09/06 04:54:47;;;;;;;10.43;7.60;;;;;;;18.66;95.40;98212.00;4189330;28;20758;-91
2022/09/06 04:56:50;;;;;;;12.50;8.07;;;;;;;18.67;95.35;98242.75;4191902;28;20991;-92
2022/09/06 04:58:56;;;;;;;11.83;7.67;;;;;;;18.67;95.27;98245.38;4175785;28;21683;-91
2022/09/06 05:00:59;;;;;;;9.63;7.70;;;;;;;18.71;96.34;98259.94;4172406;28;20647;-91
2022/09/06 05:03:02;;;;;;;11.43;8.47;;;;;;;18.72;96.49;98273.97;4191348;28;20686;-91
2022/09/06 05:05:05;;;;;;;9.50;8.00;;;;;;;18.70;96.61;98279.44;4175915;28;20669;-92
2022/09/06 05:07:09;;;;;;;9.07;8.17;;;;;;;18.64;97.08;98268.63;4190220;28;20668;-92
2022/09/06 05:09:12;;;;;;;10.57;7.70;;;;;;;18.59;98.24;98265.59;4188375;28;20723;-92
2022/09/06 05:11:15;;;;;;;15.13;8.90;;;;;;;18.58;98.09;98267.44;4173618;28;20653;-92
2022/09/06 05:13:18;;;;;;;8.47;7.70;;;;;;;18.60;98.96;98281.31;4191366;28;21051;-92
2022/09/06 05:15:23;;;;;;;9.40;8.40;;;;;;;18.55;98.27;98288.00;4187920;28;20635;-92
2022/09/06 05:17:26;;;;;;;9.90;8.83;;;;;;;18.52;98.32;98291.81;4174173;28;20691;-91
2022/09/06 05:19:29;;;;;;;9.67;8.50;;;;;;;18.53;98.30;98284.69;4201540;28;20646;-92
2022/09/06 05:21:32;;;;;;;9.40;8.00;;;;;;;18.51;98.61;98284.84;4204819;28;20635;-91
2022/09/06 05:23:35;;;;;;;9.93;8.80;;;;;;;18.52;98.76;98283.88;4187373;28;20741;-92
2022/09/06 05:25:39;;;;;;;9.60;8.70;;;;;;;18.55;99.07;98283.59;4202114;28;20658;-92
2022/09/06 05:27:42;;;;;;;9.70;8.70;;;;;;;18.59;99.49;98278.81;4201274;28;20655;-92
2022/09/06 05:29:45;;;;;;;10.40;8.90;;;;;;;18.58;98.51;98280.66;4186761;28;20654;-92
2022/09/06 05:31:49;;;;;;;9.57;8.57;;;;;;;18.62;99.21;98283.81;4182128;28;20652;-92
2022/09/06 05:33:52;;;;;;;9.43;8.40;;;;;;;18.67;99.24;98292.97;4206174;28;20686;-92
2022/09/06 05:35:57;;;;;;;9.63;8.73;;;;;;;18.69;99.64;98291.00;4205067;28;21364;-92
2022/09/06 05:38:00;;;;;;;9.17;8.37;;;;;;;18.76;99.42;98299.97;4186362;28;21265;-92
2022/09/06 05:40:04;;;;;;;11.13;8.57;;;;;;;18.81;99.64;98304.81;4169209;28;20848;-91
2022/09/06 05:42:07;;;;;;;9.57;8.60;;;;;;;18.87;99.51;98307.69;4200383;28;21569;-92
2022/09/06 05:44:10;;;;;;;9.67;8.50;;;;;;;18.92;99.36;98314.19;4170602;28;20706;-92
2022/09/06 05:46:13;;;;;;;10.83;8.23;;;;;;;18.99;99.42;98306.50;4185350;28;20675;-92
2022/09/06 05:48:18;;;;;;;10.00;8.87;;;;;;;19.08;99.92;98308.28;4206238;28;20655;-92
2022/09/06 05:50:21;;;;;;;10.30;9.30;;;;;;;19.16;100.00;98311.78;4184684;28;21254;-92
2022/09/06 05:52:24;;;;;;;10.43;9.43;;;;;;;19.32;99.46;98313.75;4190227;28;20984;-92
2022/09/06 05:54:30;;;;;;;9.40;8.50;;;;;;;19.46;97.93;98311.38;4186307;28;20655;-92
2022/09/06 05:56:34;;;;;;;9.43;8.40;;;;;;;19.68;98.12;98317.00;4167874;28;20641;-92
2022/09/06 05:58:37;;;;;;;9.97;8.73;;;;;;;19.79;97.88;98316.75;4199959;28;21281;-91
2022/09/06 06:00:40;;;;;;;9.83;8.50;;;;;;;19.83;98.23;98312.81;4181548;28;20714;-92
2022/09/06 06:02:46;;;;;;;10.40;8.43;;;;;;;19.83;96.43;98318.94;4203684;28;21253;-92
2022/09/06 06:04:53;;;;;;;9.10;8.20;;;;;;;19.81;96.92;98319.25;4206350;28;21268;-91
2022/09/06 06:06:56;;;;;;;12.47;9.07;;;;;;;19.79;96.18;98311.47;4203551;28;20723;-93
2022/09/06 06:08:59;;;;;;;9.10;8.20;;;;;;;19.78;95.96;98311.59;4204696;28;21332;-92
2022/09/06 06:11:03;;;;;;;10.27;8.93;;;;;;;19.78;95.70;98315.06;4189288;28;20660;-93
2022/09/06 06:13:06;;;;;;;12.30;9.07;;;;;;;19.81;96.05;98319.25;4185661;28;20673;-93
2022/09/06 06:15:10;;;;;;;9.87;8.87;;;;;;;19.82;97.85;98324.38;4201408;28;20660;-92
2022/09/06 06:17:13;;;;;;;11.80;8.70;;;;;;;19.83;97.40;98322.56;4187426;28;20694;-92
2022/09/06 06:19:16;;;;;;;11.53;9.10;;;;;;;19.82;97.50;98326.22;4187794;28;20805;-93
2022/09/06 06:21:22;;;;;;;9.50;8.50;;;;;;;19.83;97.29;98327.84;4186763;28;20678;-93
2022/09/06 06:23:26;;;;;;;10.00;7.80;;;;;;;19.83;96.79;98333.16;4189466;28;20723;-92
2022/09/06 06:25:29;;;;;;;10.40;7.87;;;;;;;19.83;96.53;98334.00;4186724;28;20657;-90
2022/09/06 06:27:35;;;;;;;11.90;8.43;;;;;;;19.85;98.19;98334.66;4199631;28;20709;-91
2022/09/06 06:29:38;;;;;;;12.10;7.77;;;;;;;19.86;97.55;98337.19;4186051;28;20706;-92
2022/09/06 06:31:41;;;;;;;9.40;8.37;;;;;;;19.87;97.97;98338.00;4187372;28;21276;-93
2022/09/06 06:33:45;;;;;;;9.17;7.83;;;;;;;19.88;96.70;98343.16;4202033;28;21273;-86
2022/09/06 06:35:57;;;;;;;10.33;7.53;;;;;;;19.93;96.63;98340.84;4164276;28;20663;-86
2022/09/06 06:38:01;;;;;;;9.70;7.33;;;;;;;19.94;97.19;98331.13;4180952;28;21326;-87
2022/09/06 06:40:05;;;;;;;9.53;8.10;;;;;;;19.96;96.21;98339.72;4182656;28;20653;-86
2022/09/06 06:42:09;;;;;;;8.70;7.80;;;;;;;19.96;96.69;98335.25;4190259;28;20644;-87
2022/09/06 06:44:21;;;;;;;8.23;7.43;;;;;;;20.03;97.28;98338.13;4204968;28;20739;-87
2022/09/06 06:46:25;;;;;;;9.10;8.03;;;;;;;20.07;97.89;98340.31;4200791;28;20656;-86
2022/09/06 06:48:28;;;;;;;9.20;8.30;;;;;;;20.13;96.70;98338.81;4181957;28;20653;-85
2022/09/06 06:50:32;;;;;;;9.47;8.47;;;;;;;20.20;97.72;98342.50;4202808;28;20643;-86
2022/09/06 06:52:35;;;;;;;22.67;20.27;;;;;;;20.31;96.98;98340.41;4186472;28;20651;-86
2022/09/06 06:54:40;;;;;;;13.00;8.47;;;;;;;20.49;98.39;98344.66;4197111;28;21282;-86
2022/09/06 06:56:44;;;;;;;10.20;8.37;;;;;;;20.62;96.53;98347.66;4205141;28;20643;-86
2022/09/06 06:58:48;;;;;;;9.37;8.37;;;;;;;20.73;97.35;98351.88;4176902;28;20650;-86
2022/09/06 07:00:51;;;;;;;9.33;7.80;;;;;;;20.79;97.55;98352.06;4171224;28;20702;-86
2022/09/06 07:02:55;;;;;;;9.57;8.60;;;;;;;20.83;96.97;98354.22;4171193;28;20666;-86
2022/09/06 07:04:58;;;;;;;9.00;7.93;;;;;;;20.88;96.09;98348.44;4186909;28;20762;-85
2022/09/06 07:07:02;;;;;;;15.00;8.60;;;;;;;20.91;96.23;98343.66;4185276;28;20643;-86
2022/09/06 07:09:25;;;;;;;10.63;8.27;;;;;;;21.03;96.21;98349.47;4185176;28;20661;-86
2022/09/06 07:11:50;;;;;;;11.63;8.17;;;;;;;21.26;95.56;98355.81;4183361;28;21515;-86
2022/09/06 07:13:53;;;;;;;11.97;8.80;;;;;;;21.73;96.49;98363.84;4202246;28;20642;-86
2022/09/06 07:16:07;;;;;;;14.00;8.90;;;;;;;22.26;95.52;98367.59;4207591;28;20649;-86
2022/09/06 07:18:10;;;;;;;10.60;7.70;;;;;;;22.68;93.90;98370.78;4187618;28;21290;-86
2022/09/06 07:20:13;;;;;;;7.93;6.90;;;;;;;22.83;90.95;98360.06;4199164;28;20640;-86
2022/09/06 07:22:18;;;;;;;8.13;7.17;;;;;;;22.76;90.41;98359.09;4202503;28;20666;-86
2022/09/06 07:24:21;;;;;;;8.47;7.47;;;;;;;22.58;88.79;98348.88;4202417;28;20691;-86
2022/09/06 07:26:25;;;;;;;8.73;7.50;;;;;;;22.42;88.89;98339.13;4200697;28;20657;-86
2022/09/06 07:28:30;;;;;;;9.43;7.80;;;;;;;22.41;89.36;98348.09;4186344;28;21220;-86
2022/09/06 07:30:36;;;;;;;12.30;8.00;;;;;;;22.40;89.38;98346.47;4200838;28;20665;-86
2022/09/06 07:32:39;;;;;;;12.17;8.03;;;;;;;22.46;89.80;98348.44;4168439;28;21268;-86
2022/09/06 07:34:42;;;;;;;10.83;8.63;;;;;;;22.58;91.82;98346.22;4198617;28;20712;-86
2022/09/06 07:36:45;;;;;;;9.63;7.33;;;;;;;22.63;90.09;98338.53;4163281;28;20781;-86
2022/09/06 07:38:49;;;;;;;8.90;7.37;;;;;;;22.71;87.75;98345.47;4197661;28;20660;-83
2022/09/06 07:40:56;;;;;;;9.50;8.53;;;;;;;22.98;87.65;98347.69;4200219;28;20663;-86
2022/09/06 07:43:00;;;;;;;8.30;7.50;;;;;;;23.40;87.32;98359.56;4181388;28;20652;-86
2022/09/06 07:45:04;;;;;;;10.97;7.97;;;;;;;23.64;86.69;98356.75;4183081;28;20644;-86
2022/09/06 07:47:09;;;;;;;7.90;6.90;;;;;;;23.91;84.96;98365.00;4184823;28;20666;-85
2022/09/06 07:49:32;;;;;;;8.10;7.30;;;;;;;24.00;83.37;98357.78;4200432;28;20726;-86
2022/09/06 07:51:36;;;;;;;7.97;6.90;;;;;;;23.88;84.20;98356.53;4203727;28;20648;-86
2022/09/06 07:53:41;;;;;;;7.87;7.07;;;;;;;23.82;83.77;98352.75;4195676;28;20645;-86
2022/09/06 07:55:44;;;;;;;8.53;7.70;;;;;;;23.82;83.29;98350.09;4181351;28;20654;-86
2022/09/06 07:57:47;;;;;;;7.47;6.77;;;;;;;23.87;84.39;98352.22;4186344;28;20690;-86
2022/09/06 07:59:50;;;;;;;8.73;7.70;;;;;;;23.88;84.66;98349.38;4167297;28;20661;-86
2022/09/06 08:01:55;;;;;;;9.40;7.13;;;;;;;23.90;83.70;98357.19;4202512;28;20707;-86
2022/09/06 08:03:59;;;;;;;9.83;7.57;;;;;;;23.95;84.08;98357.47;4188279;28;20749;-88
2022/09/06 08:06:02;;;;;;;8.27;7.47;;;;;;;24.06;84.92;98357.03;4188113;28;20645;-86
2022/09/06 08:08:13;;;;;;;7.10;6.33;;;;;;;24.18;84.95;98357.22;4204891;28;20672;-86
2022/09/06 08:10:36;;;;;;;7.50;5.87;;;;;;;24.32;83.92;98348.44;4188340;28;21000;-86
2022/09/06 08:12:39;;;;;;;7.00;6.27;;;;;;;24.39;82.85;98348.53;4189065;28;20657;-86
2022/09/06 08:14:42;;;;;;;6.20;5.60;;;;;;;24.51;82.19;98352.41;4171773;28;20652;-86
2022/09/06 08:16:45;;;;;;;8.00;5.47;;;;;;;24.70;81.13;98347.31;4204038;28;20747;-86
2022/09/06 08:18:52;;;;;;;6.30;5.33;;;;;;;25.05;80.66;98343.88;4189957;28;20670;-86
2022/09/06 08:20:55;;;;;;;6.13;4.80;;;;;;;25.40;78.01;98346.53;4176627;28;20745;-86
2022/09/06 08:22:58;;;;;;;7.00;5.27;;;;;;;25.79;77.32;98342.41;4171275;28;20646;-86
2022/09/06 08:25:01;;;;;;;6.30;5.57;;;;;;;26.07;75.53;98346.75;4173431;28;20651;-86
2022/09/06 08:27:06;;;;;;;5.37;4.87;;;;;;;26.26;74.06;98349.53;4203576;28;20649;-86
2022/09/06 08:29:10;;;;;;;5.40;4.90;;;;;;;26.49;73.03;98352.81;4192369;28;20647;-87
2022/09/06 08:31:14;;;;;;;6.70;4.47;;;;;;;26.58;72.75;98343.56;4207829;28;21286;-86
2022/09/06 08:33:20;;;;;;;7.43;5.80;;;;;;;26.73;73.91;98344.28;4211299;28;20645;-87
2022/09/06 08:35:25;;;;;;;8.17;5.20;;;;;;;26.93;72.47;98343.38;4188691;28;20650;-87
2022/09/06 08:37:28;;;;;;;10.43;5.63;;;;;;;26.98;72.93;98348.13;4189994;28;20656;-87
2022/09/06 08:39:31;;;;;;;6.10;5.50;;;;;;;26.88;73.27;98331.56;4168745;28;20656;-86
2022/09/06 08:41:46;;;;;;;6.83;5.10;;;;;;;27.03;71.12;98332.28;4180313;28;20990;-87
2022/09/06 08:43:53;;;;;;;5.53;5.03;;;;;;;27.17;69.79;98340.97;4204614;28;20643;-87
2022/09/06 08:46:17;;;;;;;7.13;5.07;;;;;;;27.31;70.58;98339.97;4186786;28;20642;-90
2022/09/06 08:48:21;;;;;;;7.40;5.00;;;;;;;27.41;70.45;98350.31;4190403;28;20640;-87
2022/09/06 08:50:28;;;;;;;5.70;5.10;;;;;;;27.45;68.87;98338.97;4188498;28;20683;-87
2022/09/06 08:52:50;;;;;;;5.60;5.10;;;;;;;27.54;69.31;98338.63;4204486;28;21248;-86
2022/09/06 08:55:26;;;;;;;5.83;4.93;;;;;;;27.66;68.17;98328.94;4200639;28;20653;-87
2022/09/06 08:57:50;;;;;;;5.13;4.63;;;;;;;27.73;67.74;98332.44;4204153;28;20725;-87
2022/09/06 08:59:58;;;;;;;5.33;4.80;;;;;;;27.85;67.80;98327.31;4187245;28;20647;-87
2022/09/06 09:02:10;;;;;;;6.50;5.00;;;;;;;27.97;66.75;98326.47;4202165;28;20644;-87
2022/09/06 09:04:15;;;;;;;6.57;5.90;;;;;;;28.13;68.02;98320.69;4205202;28;20663;-87
2022/09/06 09:06:20;;;;;;;8.03;5.17;;;;;;;28.28;66.73;98324.81;4201495;28;22753;-87
2022/09/06 09:08:25;;;;;;;5.67;5.10;;;;;;;28.39;69.99;98317.97;4169748;28;20663;-87
2022/09/06 09:10:31;;;;;;;10.97;5.47;;;;;;;28.57;68.70;98321.63;4199130;28;21025;-87
2022/09/06 09:12:38;;;;;;;6.57;5.90;;;;;;;28.60;66.36;98313.16;4178522;28;20656;-87
2022/09/06 09:14:43;;;;;;;5.63;5.13;;;;;;;28.36;67.31;98304.97;4203236;28;20633;-87
2022/09/06 09:16:49;;;;;;;6.07;5.47;;;;;;;28.20;67.74;98294.66;4182440;28;20651;-87
2022/09/06 09:18:55;;;;;;;8.40;5.00;;;;;;;28.26;68.44;98304.56;4187613;28;20650;-87
2022/09/06 09:20:59;;;;;;;5.07;4.57;;;;;;;28.27;68.10;98300.88;4167360;28;20703;-87
2022/09/06 09:23:03;;;;;;;7.33;5.30;;;;;;;28.20;67.51;98292.81;4206678;28;20658;-87
2022/09/06 09:25:08;;;;;;;5.40;4.90;;;;;;;28.29;69.49;98299.59;4183499;28;20660;-87
2022/09/06 09:27:12;;;;;;;8.00;5.10;;;;;;;28.53;68.49;98298.91;4184568;28;20651;-87
2022/09/06 09:29:16;;;;;;;7.13;4.70;;;;;;;28.67;67.14;98298.69;4186905;28;21817;-87
2022/09/06 09:31:33;;;;;;;5.60;4.90;;;;;;;28.76;66.36;98301.97;4183035;28;20724;-87
2022/09/06 09:33:38;;;;;;;5.53;4.93;;;;;;;28.66;66.40;98296.19;4201185;28;20658;-87
2022/09/06 09:35:42;;;;;;;6.60;4.90;;;;;;;28.45;65.97;98287.59;4185174;28;21069;-87
2022/09/06 09:37:45;;;;;;;5.60;4.83;;;;;;;28.27;66.06;98292.81;4163655;28;20755;-87
2022/09/06 09:39:53;;;;;;;5.33;4.83;;;;;;;28.11;67.11;98282.50;4203750;28;20759;-87
2022/09/06 09:41:56;;;;;;;10.90;8.40;;;;;;;27.99;66.57;98286.00;4187067;28;20650;-87
2022/09/06 09:44:03;;;;;;;6.47;5.20;;;;;;;27.89;68.08;98285.59;4183785;28;20734;-87
2022/09/06 09:46:32;;;;;;;5.87;5.27;;;;;;;27.82;67.52;98279.44;4170093;28;20706;-87
2022/09/06 09:48:35;;;;;;;7.17;5.00;;;;;;;27.74;68.06;98274.25;4204647;28;20653;-87
2022/09/06 09:50:38;;;;;;;7.00;5.30;;;;;;;27.71;67.35;98280.03;4184721;28;21231;-87